sensor_id;sensor_type;location;lat;lon;timestamp;P1;durP1;ratioP1;P2;durP2;ratioP2
77495;SDS011;66600;48.378;9.948;2023-11-18T00:00:24;6.15;;;4.68;;
77495;SDS011;66600;48.378;9.948;2023-11-18T00:00:54;5.88;;;4.40;;
77495;SDS011;66600;48.378;9.948;2023-11-18T00:01:25;6.13;;;4.18;;
77495;SDS011;66600;48.378;9.948;2023-11-18T00:02:00;5.90;;;4.32;;
77495;SDS011;66600;48.378;9.948;2023-11-18T00:02:31;6.22;;;4.40;;
77495;SDS011;66600;48.378;9.948;2023-11-18T00:03:03;7.20;;;4.40;;
77495;SDS011;66600;48.378;9.948;2023-11-18T00:03:35;6.05;;;4.18;;
77495;SDS011;66600;48.378;9.948;2023-11-18T00:04:05;5.53;;;4.15;;
77495;SDS011;66600;48.378;9.948;2023-11-18T00:04:40;7.47;;;4.32;;
77495;SDS011;66600;48.378;9.948;2023-11-18T00:05:10;6.68;;;4.13;;
77495;SDS011;66600;48.378;9.948;2023-11-18T00:05:41;5.65;;;4.18;;
77495;SDS011;66600;48.378;9.948;2023-11-18T00:06:11;6.35;;;4.28;;
77495;SDS011;66600;48.378;9.948;2023-11-18T00:06:43;5.88;;;4.00;;
77495;SDS011;66600;48.378;9.948;2023-11-18T00:07:14;5.78;;;4.03;;
77495;SDS011;66600;48.378;9.948;2023-11-18T00:07:44;5.80;;;4.25;;
77495;SDS011;66600;48.378;9.948;2023-11-18T00:08:14;5.65;;;4.13;;
77495;SDS011;66600;48.378;9.948;2023-11-18T00:08:45;6.57;;;4.18;;
77495;SDS011;66600;48.378;9.948;2023-11-18T00:09:15;5.55;;;4.00;;
77495;SDS011;66600;48.378;9.948;2023-11-18T00:09:45;6.05;;;4.20;;
77495;SDS011;66600;48.378;9.948;2023-11-18T00:10:16;5.20;;;4.00;;
77495;SDS011;66600;48.378;9.948;2023-11-18T00:10:47;5.90;;;4.15;;
77495;SDS011;66600;48.378;9.948;2023-11-18T00:11:17;5.70;;;4.45;;
77495;SDS011;66600;48.378;9.948;2023-11-18T00:11:48;5.45;;;4.00;;
77495;SDS011;66600;48.378;9.948;2023-11-18T00:12:19;6.93;;;4.45;;
77495;SDS011;66600;48.378;9.948;2023-11-18T00:12:49;5.90;;;4.25;;
77495;SDS011;66600;48.378;9.948;2023-11-18T00:13:20;6.18;;;4.18;;
77495;SDS011;66600;48.378;9.948;2023-11-18T00:13:50;5.78;;;4.18;;
77495;SDS011;66600;48.378;9.948;2023-11-18T00:14:20;6.53;;;4.07;;
77495;SDS011;66600;48.378;9.948;2023-11-18T00:14:51;5.85;;;4.00;;
77495;SDS011;66600;48.378;9.948;2023-11-18T00:15:21;6.47;;;4.75;;
77495;SDS011;66600;48.378;9.948;2023-11-18T00:15:52;6.30;;;4.32;;
77495;SDS011;66600;48.378;9.948;2023-11-18T00:16:22;6.55;;;4.57;;
77495;SDS011;66600;48.378;9.948;2023-11-18T00:16:53;6.22;;;4.22;;
77495;SDS011;66600;48.378;9.948;2023-11-18T00:17:23;5.95;;;4.28;;
77495;SDS011;66600;48.378;9.948;2023-11-18T00:17:53;5.85;;;4.13;;
77495;SDS011;66600;48.378;9.948;2023-11-18T00:18:24;6.95;;;4.30;;
77495;SDS011;66600;48.378;9.948;2023-11-18T00:18:54;6.00;;;4.50;;
77495;SDS011;66600;48.378;9.948;2023-11-18T00:19:24;8.95;;;4.13;;
77495;SDS011;66600;48.378;9.948;2023-11-18T00:19:55;5.68;;;4.32;;
77495;SDS011;66600;48.378;9.948;2023-11-18T00:20:25;5.68;;;4.30;;
77495;SDS011;66600;48.378;9.948;2023-11-18T00:20:56;5.80;;;4.30;;
77495;SDS011;66600;48.378;9.948;2023-11-18T00:21:27;5.93;;;4.13;;
77495;SDS011;66600;48.378;9.948;2023-11-18T00:22:00;5.45;;;4.25;;
77495;SDS011;66600;48.378;9.948;2023-11-18T00:22:30;5.70;;;3.90;;
77495;SDS011;66600;48.378;9.948;2023-11-18T00:23:00;5.72;;;4.38;;
77495;SDS011;66600;48.378;9.948;2023-11-18T00:23:34;6.22;;;4.53;;
77495;SDS011;66600;48.378;9.948;2023-11-18T00:24:05;6.45;;;4.28;;
77495;SDS011;66600;48.378;9.948;2023-11-18T00:24:35;4.97;;;4.07;;
77495;SDS011;66600;48.378;9.948;2023-11-18T00:25:06;6.25;;;3.95;;
77495;SDS011;66600;48.378;9.948;2023-11-18T00:25:40;5.82;;;4.30;;
77495;SDS011;66600;48.378;9.948;2023-11-18T00:26:11;6.47;;;4.65;;
77495;SDS011;66600;48.378;9.948;2023-11-18T00:26:43;6.38;;;4.65;;
77495;SDS011;66600;48.378;9.948;2023-11-18T00:27:13;7.88;;;4.60;;
77495;SDS011;66600;48.378;9.948;2023-11-18T00:27:44;6.47;;;4.85;;
77495;SDS011;66600;48.378;9.948;2023-11-18T00:28:15;6.97;;;5.00;;
77495;SDS011;66600;48.378;9.948;2023-11-18T00:28:45;6.70;;;4.47;;
77495;SDS011;66600;48.378;9.948;2023-11-18T00:29:17;6.47;;;4.72;;
77495;SDS011;66600;48.378;9.948;2023-11-18T00:29:48;6.90;;;5.00;;
77495;SDS011;66600;48.378;9.948;2023-11-18T00:30:18;6.50;;;5.18;;
77495;SDS011;66600;48.378;9.948;2023-11-18T00:30:48;7.47;;;4.97;;
77495;SDS011;66600;48.378;9.948;2023-11-18T00:31:19;6.45;;;4.78;;
77495;SDS011;66600;48.378;9.948;2023-11-18T00:31:49;6.13;;;4.72;;
77495;SDS011;66600;48.378;9.948;2023-11-18T00:32:19;6.93;;;4.93;;
77495;SDS011;66600;48.378;9.948;2023-11-18T00:32:50;6.38;;;4.63;;
77495;SDS011;66600;48.378;9.948;2023-11-18T00:33:20;6.13;;;4.40;;
77495;SDS011;66600;48.378;9.948;2023-11-18T00:33:50;6.15;;;4.57;;
77495;SDS011;66600;48.378;9.948;2023-11-18T00:34:21;6.18;;;5.00;;
77495;SDS011;66600;48.378;9.948;2023-11-18T00:34:51;6.30;;;5.05;;
77495;SDS011;66600;48.378;9.948;2023-11-18T00:35:21;6.65;;;4.70;;
77495;SDS011;66600;48.378;9.948;2023-11-18T00:35:52;6.13;;;4.55;;
77495;SDS011;66600;48.378;9.948;2023-11-18T00:36:22;7.10;;;5.07;;
77495;SDS011;66600;48.378;9.948;2023-11-18T00:36:52;7.07;;;4.88;;
77495;SDS011;66600;48.378;9.948;2023-11-18T00:37:23;6.30;;;4.57;;
77495;SDS011;66600;48.378;9.948;2023-11-18T00:37:53;7.43;;;5.07;;
77495;SDS011;66600;48.378;9.948;2023-11-18T00:38:24;5.95;;;4.72;;
77495;SDS011;66600;48.378;9.948;2023-11-18T00:38:54;7.35;;;5.03;;
77495;SDS011;66600;48.378;9.948;2023-11-18T00:39:24;7.68;;;5.10;;
77495;SDS011;66600;48.378;9.948;2023-11-18T00:39:55;6.40;;;4.65;;
77495;SDS011;66600;48.378;9.948;2023-11-18T00:40:25;6.00;;;4.60;;
77495;SDS011;66600;48.378;9.948;2023-11-18T00:40:59;6.53;;;4.93;;
77495;SDS011;66600;48.378;9.948;2023-11-18T00:41:30;6.90;;;4.97;;
77495;SDS011;66600;48.378;9.948;2023-11-18T00:42:00;6.70;;;4.85;;
77495;SDS011;66600;48.378;9.948;2023-11-18T00:42:30;5.80;;;4.60;;
77495;SDS011;66600;48.378;9.948;2023-11-18T00:43:01;7.32;;;5.25;;
77495;SDS011;66600;48.378;9.948;2023-11-18T00:43:32;10.40;;;5.80;;
77495;SDS011;66600;48.378;9.948;2023-11-18T00:44:03;7.10;;;5.20;;
77495;SDS011;66600;48.378;9.948;2023-11-18T00:44:33;7.53;;;5.00;;
77495;SDS011;66600;48.378;9.948;2023-11-18T00:45:04;6.15;;;4.68;;
77495;SDS011;66600;48.378;9.948;2023-11-18T00:45:35;6.53;;;4.72;;
77495;SDS011;66600;48.378;9.948;2023-11-18T00:46:05;6.22;;;4.82;;
77495;SDS011;66600;48.378;9.948;2023-11-18T00:46:35;7.30;;;5.15;;
77495;SDS011;66600;48.378;9.948;2023-11-18T00:47:06;6.22;;;4.75;;
77495;SDS011;66600;48.378;9.948;2023-11-18T00:47:36;7.00;;;5.20;;
77495;SDS011;66600;48.378;9.948;2023-11-18T00:48:07;6.25;;;4.80;;
77495;SDS011;66600;48.378;9.948;2023-11-18T00:48:38;8.05;;;5.07;;
77495;SDS011;66600;48.378;9.948;2023-11-18T00:49:08;7.35;;;5.05;;
77495;SDS011;66600;48.378;9.948;2023-11-18T00:49:41;6.50;;;4.78;;
77495;SDS011;66600;48.378;9.948;2023-11-18T00:50:11;7.35;;;5.07;;
77495;SDS011;66600;48.378;9.948;2023-11-18T00:50:41;7.82;;;5.13;;
77495;SDS011;66600;48.378;9.948;2023-11-18T00:51:12;7.22;;;5.03;;
77495;SDS011;66600;48.378;9.948;2023-11-18T00:51:42;6.32;;;4.70;;
77495;SDS011;66600;48.378;9.948;2023-11-18T00:52:12;6.43;;;5.13;;
77495;SDS011;66600;48.378;9.948;2023-11-18T00:52:43;6.65;;;5.10;;
77495;SDS011;66600;48.378;9.948;2023-11-18T00:53:13;6.75;;;5.20;;
77495;SDS011;66600;48.378;9.948;2023-11-18T00:53:43;7.68;;;5.00;;
77495;SDS011;66600;48.378;9.948;2023-11-18T00:54:14;7.20;;;5.20;;
77495;SDS011;66600;48.378;9.948;2023-11-18T00:54:45;8.15;;;5.25;;
77495;SDS011;66600;48.378;9.948;2023-11-18T00:55:15;8.52;;;5.63;;
77495;SDS011;66600;48.378;9.948;2023-11-18T00:55:48;7.30;;;5.53;;
77495;SDS011;66600;48.378;9.948;2023-11-18T00:56:18;8.05;;;6.20;;
77495;SDS011;66600;48.378;9.948;2023-11-18T00:56:51;7.90;;;5.95;;
77495;SDS011;66600;48.378;9.948;2023-11-18T00:57:22;8.07;;;5.97;;
77495;SDS011;66600;48.378;9.948;2023-11-18T00:57:52;8.52;;;5.85;;
77495;SDS011;66600;48.378;9.948;2023-11-18T00:58:23;8.35;;;6.20;;
77495;SDS011;66600;48.378;9.948;2023-11-18T00:58:53;8.38;;;6.22;;
77495;SDS011;66600;48.378;9.948;2023-11-18T00:59:23;8.93;;;6.40;;
77495;SDS011;66600;48.378;9.948;2023-11-18T00:59:54;9.45;;;6.70;;
77495;SDS011;66600;48.378;9.948;2023-11-18T01:00:24;10.30;;;6.35;;
77495;SDS011;66600;48.378;9.948;2023-11-18T01:00:56;8.07;;;5.78;;
77495;SDS011;66600;48.378;9.948;2023-11-18T01:01:27;9.98;;;6.20;;
77495;SDS011;66600;48.378;9.948;2023-11-18T01:01:58;8.00;;;5.63;;
77495;SDS011;66600;48.378;9.948;2023-11-18T01:02:28;7.38;;;5.72;;
77495;SDS011;66600;48.378;9.948;2023-11-18T01:02:59;9.43;;;5.80;;
77495;SDS011;66600;48.378;9.948;2023-11-18T01:03:29;8.20;;;5.25;;
77495;SDS011;66600;48.378;9.948;2023-11-18T01:04:00;7.93;;;5.38;;
77495;SDS011;66600;48.378;9.948;2023-11-18T01:04:30;7.72;;;5.38;;
77495;SDS011;66600;48.378;9.948;2023-11-18T01:05:03;7.25;;;5.43;;
77495;SDS011;66600;48.378;9.948;2023-11-18T01:05:33;7.55;;;5.30;;
77495;SDS011;66600;48.378;9.948;2023-11-18T01:06:04;7.30;;;5.03;;
77495;SDS011;66600;48.378;9.948;2023-11-18T01:06:36;10.15;;;5.72;;
77495;SDS011;66600;48.378;9.948;2023-11-18T01:07:06;7.90;;;5.72;;
77495;SDS011;66600;48.378;9.948;2023-11-18T01:07:38;8.55;;;5.85;;
77495;SDS011;66600;48.378;9.948;2023-11-18T01:08:09;7.80;;;5.40;;
77495;SDS011;66600;48.378;9.948;2023-11-18T01:08:39;8.63;;;5.95;;
77495;SDS011;66600;48.378;9.948;2023-11-18T01:09:10;7.65;;;5.72;;
77495;SDS011;66600;48.378;9.948;2023-11-18T01:09:40;7.18;;;5.70;;
77495;SDS011;66600;48.378;9.948;2023-11-18T01:10:11;6.43;;;5.03;;
77495;SDS011;66600;48.378;9.948;2023-11-18T01:10:41;7.97;;;5.72;;
77495;SDS011;66600;48.378;9.948;2023-11-18T01:11:18;8.27;;;6.40;;
77495;SDS011;66600;48.378;9.948;2023-11-18T01:11:49;7.50;;;5.88;;
77495;SDS011;66600;48.378;9.948;2023-11-18T01:12:19;7.38;;;5.70;;
77495;SDS011;66600;48.378;9.948;2023-11-18T01:12:50;9.05;;;6.03;;
77495;SDS011;66600;48.378;9.948;2023-11-18T01:13:21;8.57;;;5.50;;
77495;SDS011;66600;48.378;9.948;2023-11-18T01:13:51;8.25;;;6.05;;
77495;SDS011;66600;48.378;9.948;2023-11-18T01:14:24;8.63;;;6.10;;
77495;SDS011;66600;48.378;9.948;2023-11-18T01:14:55;8.38;;;6.13;;
77495;SDS011;66600;48.378;9.948;2023-11-18T01:15:25;8.75;;;6.22;;
77495;SDS011;66600;48.378;9.948;2023-11-18T01:15:55;9.93;;;5.80;;
77495;SDS011;66600;48.378;9.948;2023-11-18T01:16:26;8.05;;;5.65;;
77495;SDS011;66600;48.378;9.948;2023-11-18T01:16:58;9.93;;;6.60;;
77495;SDS011;66600;48.378;9.948;2023-11-18T01:17:29;10.10;;;5.80;;
77495;SDS011;66600;48.378;9.948;2023-11-18T01:18:01;8.02;;;6.20;;
77495;SDS011;66600;48.378;9.948;2023-11-18T01:18:32;7.80;;;6.00;;
77495;SDS011;66600;48.378;9.948;2023-11-18T01:19:02;9.10;;;6.18;;
77495;SDS011;66600;48.378;9.948;2023-11-18T01:19:33;9.27;;;6.40;;
77495;SDS011;66600;48.378;9.948;2023-11-18T01:20:06;9.35;;;6.05;;
77495;SDS011;66600;48.378;9.948;2023-11-18T01:20:41;9.35;;;6.45;;
77495;SDS011;66600;48.378;9.948;2023-11-18T01:21:11;8.68;;;6.32;;
77495;SDS011;66600;48.378;9.948;2023-11-18T01:21:42;8.07;;;6.40;;
77495;SDS011;66600;48.378;9.948;2023-11-18T01:22:12;9.27;;;6.80;;
77495;SDS011;66600;48.378;9.948;2023-11-18T01:22:43;8.57;;;6.22;;
77495;SDS011;66600;48.378;9.948;2023-11-18T01:23:15;9.23;;;6.70;;
77495;SDS011;66600;48.378;9.948;2023-11-18T01:23:46;10.00;;;7.00;;
77495;SDS011;66600;48.378;9.948;2023-11-18T01:24:16;9.30;;;6.63;;
77495;SDS011;66600;48.378;9.948;2023-11-18T01:24:46;9.63;;;6.78;;
77495;SDS011;66600;48.378;9.948;2023-11-18T01:25:17;9.25;;;6.43;;
77495;SDS011;66600;48.378;9.948;2023-11-18T01:25:47;9.52;;;6.75;;
77495;SDS011;66600;48.378;9.948;2023-11-18T01:26:21;8.07;;;6.25;;
77495;SDS011;66600;48.378;9.948;2023-11-18T01:26:53;9.68;;;6.65;;
77495;SDS011;66600;48.378;9.948;2023-11-18T01:27:23;8.48;;;6.65;;
77495;SDS011;66600;48.378;9.948;2023-11-18T01:27:53;10.55;;;6.65;;
77495;SDS011;66600;48.378;9.948;2023-11-18T01:28:24;10.35;;;7.00;;
77495;SDS011;66600;48.378;9.948;2023-11-18T01:28:56;8.38;;;6.50;;
77495;SDS011;66600;48.378;9.948;2023-11-18T01:29:26;9.02;;;6.60;;
77495;SDS011;66600;48.378;9.948;2023-11-18T01:29:57;8.88;;;6.75;;
77495;SDS011;66600;48.378;9.948;2023-11-18T01:30:27;9.82;;;6.70;;
77495;SDS011;66600;48.378;9.948;2023-11-18T01:30:57;8.65;;;6.50;;
77495;SDS011;66600;48.378;9.948;2023-11-18T01:31:28;9.52;;;6.85;;
77495;SDS011;66600;48.378;9.948;2023-11-18T01:31:58;9.60;;;6.63;;
77495;SDS011;66600;48.378;9.948;2023-11-18T01:32:28;9.98;;;6.80;;
77495;SDS011;66600;48.378;9.948;2023-11-18T01:33:00;9.55;;;6.40;;
77495;SDS011;66600;48.378;9.948;2023-11-18T01:33:31;8.55;;;6.10;;
77495;SDS011;66600;48.378;9.948;2023-11-18T01:34:02;9.27;;;6.65;;
77495;SDS011;66600;48.378;9.948;2023-11-18T01:34:37;8.80;;;6.15;;
77495;SDS011;66600;48.378;9.948;2023-11-18T01:35:09;9.77;;;6.30;;
77495;SDS011;66600;48.378;9.948;2023-11-18T01:35:42;8.88;;;6.15;;
77495;SDS011;66600;48.378;9.948;2023-11-18T01:36:14;10.10;;;6.43;;
77495;SDS011;66600;48.378;9.948;2023-11-18T01:36:44;8.95;;;6.55;;
77495;SDS011;66600;48.378;9.948;2023-11-18T01:37:14;8.00;;;5.90;;
77495;SDS011;66600;48.378;9.948;2023-11-18T01:37:45;8.95;;;6.35;;
77495;SDS011;66600;48.378;9.948;2023-11-18T01:38:15;8.10;;;5.95;;
77495;SDS011;66600;48.378;9.948;2023-11-18T01:38:45;9.20;;;6.57;;
77495;SDS011;66600;48.378;9.948;2023-11-18T01:39:16;8.60;;;6.05;;
77495;SDS011;66600;48.378;9.948;2023-11-18T01:39:50;8.65;;;5.88;;
77495;SDS011;66600;48.378;9.948;2023-11-18T01:40:21;8.48;;;5.93;;
77495;SDS011;66600;48.378;9.948;2023-11-18T01:40:51;7.32;;;6.10;;
77495;SDS011;66600;48.378;9.948;2023-11-18T01:41:23;8.30;;;6.00;;
77495;SDS011;66600;48.378;9.948;2023-11-18T01:41:55;8.18;;;6.45;;
77495;SDS011;66600;48.378;9.948;2023-11-18T01:42:25;8.60;;;6.40;;
77495;SDS011;66600;48.378;9.948;2023-11-18T01:42:56;7.82;;;6.20;;
77495;SDS011;66600;48.378;9.948;2023-11-18T01:43:26;8.18;;;6.10;;
77495;SDS011;66600;48.378;9.948;2023-11-18T01:43:57;8.70;;;6.00;;
77495;SDS011;66600;48.378;9.948;2023-11-18T01:44:27;7.53;;;6.07;;
77495;SDS011;66600;48.378;9.948;2023-11-18T01:45:01;11.35;;;6.53;;
77495;SDS011;66600;48.378;9.948;2023-11-18T01:45:33;7.75;;;5.80;;
77495;SDS011;66600;48.378;9.948;2023-11-18T01:46:05;10.18;;;6.63;;
77495;SDS011;66600;48.378;9.948;2023-11-18T01:46:37;10.57;;;6.85;;
77495;SDS011;66600;48.378;9.948;2023-11-18T01:47:08;10.07;;;6.55;;
77495;SDS011;66600;48.378;9.948;2023-11-18T01:47:42;9.25;;;6.50;;
77495;SDS011;66600;48.378;9.948;2023-11-18T01:48:14;8.13;;;6.07;;
77495;SDS011;66600;48.378;9.948;2023-11-18T01:48:45;10.57;;;6.88;;
77495;SDS011;66600;48.378;9.948;2023-11-18T01:49:16;8.75;;;6.00;;
77495;SDS011;66600;48.378;9.948;2023-11-18T01:49:48;8.55;;;6.28;;
77495;SDS011;66600;48.378;9.948;2023-11-18T01:50:19;9.30;;;6.18;;
77495;SDS011;66600;48.378;9.948;2023-11-18T01:50:50;9.60;;;6.57;;
77495;SDS011;66600;48.378;9.948;2023-11-18T01:51:21;8.38;;;6.43;;
77495;SDS011;66600;48.378;9.948;2023-11-18T01:51:53;8.27;;;5.93;;
77495;SDS011;66600;48.378;9.948;2023-11-18T01:52:27;8.73;;;6.28;;
77495;SDS011;66600;48.378;9.948;2023-11-18T01:53:00;8.55;;;5.85;;
77495;SDS011;66600;48.378;9.948;2023-11-18T01:53:31;8.38;;;6.32;;
77495;SDS011;66600;48.378;9.948;2023-11-18T01:54:01;8.65;;;6.72;;
77495;SDS011;66600;48.378;9.948;2023-11-18T01:54:34;8.75;;;6.38;;
77495;SDS011;66600;48.378;9.948;2023-11-18T01:55:08;8.93;;;6.63;;
77495;SDS011;66600;48.378;9.948;2023-11-18T01:55:38;9.18;;;6.40;;
77495;SDS011;66600;48.378;9.948;2023-11-18T01:56:10;10.25;;;7.25;;
77495;SDS011;66600;48.378;9.948;2023-11-18T01:56:46;8.27;;;6.30;;
77495;SDS011;66600;48.378;9.948;2023-11-18T01:57:17;9.13;;;6.35;;
77495;SDS011;66600;48.378;9.948;2023-11-18T01:57:48;9.73;;;7.00;;
77495;SDS011;66600;48.378;9.948;2023-11-18T01:58:21;8.88;;;6.25;;
77495;SDS011;66600;48.378;9.948;2023-11-18T01:58:53;10.20;;;6.72;;
77495;SDS011;66600;48.378;9.948;2023-11-18T01:59:24;9.30;;;6.70;;
77495;SDS011;66600;48.378;9.948;2023-11-18T01:59:55;7.80;;;6.43;;
77495;SDS011;66600;48.378;9.948;2023-11-18T02:00:26;9.32;;;6.15;;
77495;SDS011;66600;48.378;9.948;2023-11-18T02:00:57;8.82;;;6.75;;
77495;SDS011;66600;48.378;9.948;2023-11-18T02:01:29;9.13;;;6.47;;
77495;SDS011;66600;48.378;9.948;2023-11-18T02:02:00;8.80;;;6.20;;
77495;SDS011;66600;48.378;9.948;2023-11-18T02:02:34;8.00;;;5.75;;
77495;SDS011;66600;48.378;9.948;2023-11-18T02:03:05;9.07;;;6.00;;
77495;SDS011;66600;48.378;9.948;2023-11-18T02:03:36;8.82;;;6.32;;
77495;SDS011;66600;48.378;9.948;2023-11-18T02:04:08;8.05;;;6.20;;
77495;SDS011;66600;48.378;9.948;2023-11-18T02:04:38;8.77;;;6.55;;
77495;SDS011;66600;48.378;9.948;2023-11-18T02:05:09;7.72;;;5.82;;
77495;SDS011;66600;48.378;9.948;2023-11-18T02:05:43;8.77;;;5.93;;
77495;SDS011;66600;48.378;9.948;2023-11-18T02:06:14;8.25;;;6.32;;
77495;SDS011;66600;48.378;9.948;2023-11-18T02:06:44;9.00;;;6.53;;
77495;SDS011;66600;48.378;9.948;2023-11-18T02:07:16;7.97;;;6.18;;
77495;SDS011;66600;48.378;9.948;2023-11-18T02:07:48;8.73;;;6.28;;
77495;SDS011;66600;48.378;9.948;2023-11-18T02:08:18;9.35;;;6.60;;
77495;SDS011;66600;48.378;9.948;2023-11-18T02:08:48;8.70;;;6.35;;
77495;SDS011;66600;48.378;9.948;2023-11-18T02:09:19;9.00;;;6.40;;
77495;SDS011;66600;48.378;9.948;2023-11-18T02:10:00;10.35;;;6.53;;
77495;SDS011;66600;48.378;9.948;2023-11-18T02:10:31;9.40;;;6.47;;
77495;SDS011;66600;48.378;9.948;2023-11-18T02:11:10;8.45;;;6.25;;
77495;SDS011;66600;48.378;9.948;2023-11-18T02:11:52;8.35;;;6.03;;
77495;SDS011;66600;48.378;9.948;2023-11-18T02:12:34;8.85;;;6.70;;
77495;SDS011;66600;48.378;9.948;2023-11-18T02:13:17;9.23;;;6.15;;
77495;SDS011;66600;48.378;9.948;2023-11-18T02:13:55;9.23;;;6.32;;
77495;SDS011;66600;48.378;9.948;2023-11-18T02:14:32;9.45;;;6.32;;
77495;SDS011;66600;48.378;9.948;2023-11-18T02:15:04;8.63;;;6.10;;
77495;SDS011;66600;48.378;9.948;2023-11-18T02:15:39;9.50;;;6.63;;
77495;SDS011;66600;48.378;9.948;2023-11-18T02:16:11;8.55;;;6.22;;
77495;SDS011;66600;48.378;9.948;2023-11-18T02:16:41;9.45;;;6.70;;
77495;SDS011;66600;48.378;9.948;2023-11-18T02:17:14;10.18;;;6.82;;
77495;SDS011;66600;48.378;9.948;2023-11-18T02:17:50;8.05;;;6.10;;
77495;SDS011;66600;48.378;9.948;2023-11-18T02:18:27;9.45;;;6.40;;
77495;SDS011;66600;48.378;9.948;2023-11-18T02:18:59;9.20;;;6.40;;
77495;SDS011;66600;48.378;9.948;2023-11-18T02:19:31;7.78;;;5.82;;
77495;SDS011;66600;48.378;9.948;2023-11-18T02:20:05;9.05;;;6.20;;
77495;SDS011;66600;48.378;9.948;2023-11-18T02:20:43;7.32;;;5.20;;
77495;SDS011;66600;48.378;9.948;2023-11-18T02:21:14;7.80;;;5.85;;
77495;SDS011;66600;48.378;9.948;2023-11-18T02:21:46;7.88;;;5.70;;
77495;SDS011;66600;48.378;9.948;2023-11-18T02:22:18;8.30;;;5.82;;
77495;SDS011;66600;48.378;9.948;2023-11-18T02:22:48;8.60;;;6.22;;
77495;SDS011;66600;48.378;9.948;2023-11-18T02:23:20;8.38;;;5.78;;
77495;SDS011;66600;48.378;9.948;2023-11-18T02:23:52;8.43;;;5.90;;
77495;SDS011;66600;48.378;9.948;2023-11-18T02:24:57;8.55;;;6.05;;
77495;SDS011;66600;48.378;9.948;2023-11-18T02:25:40;9.43;;;6.50;;
77495;SDS011;66600;48.378;9.948;2023-11-18T02:26:20;9.05;;;6.20;;
77495;SDS011;66600;48.378;9.948;2023-11-18T02:26:52;8.13;;;6.10;;
77495;SDS011;66600;48.378;9.948;2023-11-18T02:27:23;7.70;;;6.13;;
77495;SDS011;66600;48.378;9.948;2023-11-18T02:27:55;8.63;;;6.13;;
77495;SDS011;66600;48.378;9.948;2023-11-18T02:28:26;7.95;;;5.93;;
77495;SDS011;66600;48.378;9.948;2023-11-18T02:28:58;8.18;;;5.95;;
77495;SDS011;66600;48.378;9.948;2023-11-18T02:29:29;7.95;;;5.70;;
77495;SDS011;66600;48.378;9.948;2023-11-18T02:30:05;7.22;;;5.63;;
77495;SDS011;66600;48.378;9.948;2023-11-18T02:30:42;8.40;;;6.10;;
77495;SDS011;66600;48.378;9.948;2023-11-18T02:31:15;8.52;;;5.35;;
77495;SDS011;66600;48.378;9.948;2023-11-18T02:31:52;8.48;;;5.68;;
77495;SDS011;66600;48.378;9.948;2023-11-18T02:33:19;8.13;;;5.88;;
77495;SDS011;66600;48.378;9.948;2023-11-18T02:34:05;12.85;;;5.38;;
77495;SDS011;66600;48.378;9.948;2023-11-18T02:34:40;7.15;;;5.20;;
77495;SDS011;66600;48.378;9.948;2023-11-18T02:35:18;7.35;;;5.13;;
77495;SDS011;66600;48.378;9.948;2023-11-18T02:35:53;6.68;;;5.32;;
77495;SDS011;66600;48.378;9.948;2023-11-18T02:37:07;7.25;;;5.43;;
77495;SDS011;66600;48.378;9.948;2023-11-18T02:37:39;8.05;;;5.30;;
77495;SDS011;66600;48.378;9.948;2023-11-18T02:38:12;7.05;;;5.18;;
77495;SDS011;66600;48.378;9.948;2023-11-18T02:38:44;7.43;;;5.30;;
77495;SDS011;66600;48.378;9.948;2023-11-18T02:39:24;6.15;;;5.30;;
77495;SDS011;66600;48.378;9.948;2023-11-18T02:40:01;6.75;;;4.90;;
77495;SDS011;66600;48.378;9.948;2023-11-18T02:40:44;11.80;;;5.53;;
77495;SDS011;66600;48.378;9.948;2023-11-18T02:41:18;7.00;;;4.82;;
77495;SDS011;66600;48.378;9.948;2023-11-18T02:41:51;6.93;;;5.13;;
77495;SDS011;66600;48.378;9.948;2023-11-18T02:42:22;6.88;;;4.75;;
77495;SDS011;66600;48.378;9.948;2023-11-18T02:42:54;6.57;;;4.93;;
77495;SDS011;66600;48.378;9.948;2023-11-18T02:43:25;8.63;;;6.05;;
77495;SDS011;66600;48.378;9.948;2023-11-18T02:43:58;6.13;;;4.93;;
77495;SDS011;66600;48.378;9.948;2023-11-18T02:44:29;8.68;;;6.05;;
77495;SDS011;66600;48.378;9.948;2023-11-18T02:45:02;6.35;;;5.20;;
77495;SDS011;66600;48.378;9.948;2023-11-18T02:45:33;8.05;;;5.28;;
77495;SDS011;66600;48.378;9.948;2023-11-18T02:46:08;7.15;;;5.22;;
77495;SDS011;66600;48.378;9.948;2023-11-18T02:46:42;8.13;;;5.40;;
77495;SDS011;66600;48.378;9.948;2023-11-18T02:47:13;7.50;;;5.45;;
77495;SDS011;66600;48.378;9.948;2023-11-18T02:47:46;7.38;;;5.25;;
77495;SDS011;66600;48.378;9.948;2023-11-18T02:48:17;6.43;;;5.20;;
77495;SDS011;66600;48.378;9.948;2023-11-18T02:48:48;6.53;;;5.00;;
77495;SDS011;66600;48.378;9.948;2023-11-18T02:49:19;7.78;;;5.32;;
77495;SDS011;66600;48.378;9.948;2023-11-18T02:49:53;7.68;;;5.70;;
77495;SDS011;66600;48.378;9.948;2023-11-18T02:50:26;6.53;;;4.97;;
77495;SDS011;66600;48.378;9.948;2023-11-18T02:50:59;6.75;;;5.05;;
77495;SDS011;66600;48.378;9.948;2023-11-18T02:51:30;8.65;;;5.40;;
77495;SDS011;66600;48.378;9.948;2023-11-18T02:52:09;7.90;;;5.15;;
77495;SDS011;66600;48.378;9.948;2023-11-18T02:52:40;7.03;;;5.10;;
77495;SDS011;66600;48.378;9.948;2023-11-18T02:53:10;6.70;;;4.85;;
77495;SDS011;66600;48.378;9.948;2023-11-18T02:53:41;7.03;;;5.30;;
77495;SDS011;66600;48.378;9.948;2023-11-18T02:54:15;6.75;;;4.88;;
77495;SDS011;66600;48.378;9.948;2023-11-18T02:54:46;7.68;;;5.07;;
77495;SDS011;66600;48.378;9.948;2023-11-18T02:55:16;6.55;;;4.90;;
77495;SDS011;66600;48.378;9.948;2023-11-18T02:55:47;7.55;;;5.15;;
77495;SDS011;66600;48.378;9.948;2023-11-18T02:56:17;7.47;;;5.35;;
77495;SDS011;66600;48.378;9.948;2023-11-18T02:56:48;7.47;;;5.47;;
77495;SDS011;66600;48.378;9.948;2023-11-18T02:57:19;7.60;;;5.45;;
77495;SDS011;66600;48.378;9.948;2023-11-18T02:57:49;7.57;;;5.32;;
77495;SDS011;66600;48.378;9.948;2023-11-18T02:58:21;6.60;;;5.03;;
77495;SDS011;66600;48.378;9.948;2023-11-18T02:58:52;7.00;;;5.43;;
77495;SDS011;66600;48.378;9.948;2023-11-18T02:59:22;7.22;;;5.28;;
77495;SDS011;66600;48.378;9.948;2023-11-18T02:59:52;7.22;;;5.60;;
77495;SDS011;66600;48.378;9.948;2023-11-18T03:00:23;6.35;;;4.88;;
77495;SDS011;66600;48.378;9.948;2023-11-18T03:00:53;7.05;;;4.95;;
77495;SDS011;66600;48.378;9.948;2023-11-18T03:01:23;7.28;;;5.20;;
77495;SDS011;66600;48.378;9.948;2023-11-18T03:01:55;7.63;;;5.43;;
77495;SDS011;66600;48.378;9.948;2023-11-18T03:02:26;7.68;;;5.68;;
77495;SDS011;66600;48.378;9.948;2023-11-18T03:02:59;6.90;;;5.20;;
77495;SDS011;66600;48.378;9.948;2023-11-18T03:03:30;7.35;;;5.50;;
77495;SDS011;66600;48.378;9.948;2023-11-18T03:04:01;6.97;;;5.55;;
77495;SDS011;66600;48.378;9.948;2023-11-18T03:04:32;7.43;;;5.30;;
77495;SDS011;66600;48.378;9.948;2023-11-18T03:05:02;7.78;;;6.00;;
77495;SDS011;66600;48.378;9.948;2023-11-18T03:05:33;7.55;;;5.53;;
77495;SDS011;66600;48.378;9.948;2023-11-18T03:06:04;7.30;;;5.60;;
77495;SDS011;66600;48.378;9.948;2023-11-18T03:06:36;7.15;;;5.35;;
77495;SDS011;66600;48.378;9.948;2023-11-18T03:07:06;7.65;;;5.43;;
77495;SDS011;66600;48.378;9.948;2023-11-18T03:07:38;7.28;;;5.72;;
77495;SDS011;66600;48.378;9.948;2023-11-18T03:08:11;7.85;;;5.57;;
77495;SDS011;66600;48.378;9.948;2023-11-18T03:08:41;6.75;;;5.22;;
77495;SDS011;66600;48.378;9.948;2023-11-18T03:09:12;8.95;;;5.50;;
77495;SDS011;66600;48.378;9.948;2023-11-18T03:09:43;6.90;;;5.30;;
77495;SDS011;66600;48.378;9.948;2023-11-18T03:10:16;7.88;;;5.68;;
77495;SDS011;66600;48.378;9.948;2023-11-18T03:10:53;6.68;;;5.47;;
77495;SDS011;66600;48.378;9.948;2023-11-18T03:11:24;7.55;;;5.70;;
77495;SDS011;66600;48.378;9.948;2023-11-18T03:11:54;7.75;;;5.32;;
77495;SDS011;66600;48.378;9.948;2023-11-18T03:12:25;7.38;;;5.82;;
77495;SDS011;66600;48.378;9.948;2023-11-18T03:12:58;7.90;;;5.68;;
77495;SDS011;66600;48.378;9.948;2023-11-18T03:13:28;7.35;;;5.43;;